createdAt,value
2023-03-18T00:00:21.611Z,0.00
2023-03-18T00:01:21.678Z,0.00
2023-03-18T00:02:21.691Z,0.00
2023-03-18T00:03:21.706Z,0.00
2023-03-18T00:04:21.700Z,0.00
2023-03-18T00:06:47.712Z,0.00
2023-03-18T00:10:39.752Z,0.00
2023-03-18T00:11:39.720Z,0.00
2023-03-18T00:14:05.705Z,0.00
2023-03-18T00:17:57.709Z,0.00
2023-03-18T00:21:49.755Z,0.00
2023-03-18T00:27:07.713Z,0.00
2023-03-18T00:29:33.707Z,0.00
2023-03-18T00:30:34.078Z,0.00
2023-03-18T00:34:25.775Z,0.00
2023-03-18T00:35:25.816Z,0.00
2023-03-18T00:36:25.853Z,0.00
2023-03-18T00:37:25.894Z,0.00
2023-03-18T00:38:25.877Z,0.00
2023-03-18T00:39:25.928Z,0.00
2023-03-18T00:40:25.971Z,0.00
2023-03-18T00:41:26.042Z,0.00
2023-03-18T00:42:26.028Z,0.00
2023-03-18T00:43:26.080Z,0.00
2023-03-18T00:44:26.119Z,0.00
2023-03-18T00:45:26.165Z,0.00
2023-03-18T00:46:26.223Z,0.00
2023-03-18T00:47:26.268Z,0.00
2023-03-18T00:48:26.319Z,0.00
2023-03-18T00:49:26.359Z,0.00
2023-03-18T00:50:26.413Z,0.00
2023-03-18T00:51:26.462Z,0.00
2023-03-18T00:52:26.510Z,0.00
2023-03-18T00:53:26.583Z,0.00
2023-03-18T00:54:26.641Z,0.00
2023-03-18T00:55:26.681Z,0.00
2023-03-18T00:56:26.733Z,0.00
2023-03-18T00:57:26.791Z,0.00
2023-03-18T00:58:26.848Z,0.00
2023-03-18T00:59:26.900Z,0.00
2023-03-18T01:00:26.961Z,0.00
2023-03-18T01:01:27.049Z,0.00
2023-03-18T01:02:27.047Z,0.00
2023-03-18T01:03:27.024Z,0.00
2023-03-18T01:04:27.085Z,0.00
2023-03-18T01:05:27.145Z,0.00
2023-03-18T01:06:27.224Z,0.00
2023-03-18T01:07:27.189Z,0.00
2023-03-18T01:08:27.237Z,0.00
2023-03-18T01:09:27.293Z,0.00
2023-03-18T01:10:27.515Z,0.00
2023-03-18T01:11:27.385Z,0.00
2023-03-18T01:12:27.440Z,0.00
2023-03-18T01:13:27.477Z,0.00
2023-03-18T01:14:27.529Z,0.00
2023-03-18T01:15:27.578Z,0.00
2023-03-18T01:16:27.696Z,0.00
2023-03-18T01:17:27.705Z,0.00
2023-03-18T01:18:27.739Z,0.00
2023-03-18T01:19:27.789Z,0.00
2023-03-18T01:20:27.848Z,0.00
2023-03-18T01:21:27.925Z,0.00
2023-03-18T01:22:27.890Z,0.00
2023-03-18T01:23:27.930Z,0.00
2023-03-18T01:24:27.969Z,0.00
2023-03-18T01:25:28.040Z,0.00
2023-03-18T01:26:28.009Z,0.00
2023-03-18T01:27:28.049Z,0.00
2023-03-18T01:28:28.091Z,0.00
2023-03-18T01:29:28.144Z,0.00
2023-03-18T01:30:28.203Z,0.00
2023-03-18T01:31:28.275Z,0.00
2023-03-18T01:32:28.274Z,0.00
2023-03-18T01:33:28.245Z,0.00
2023-03-18T01:34:28.293Z,0.00
2023-03-18T01:35:28.364Z,0.00
2023-03-18T01:36:28.408Z,0.00
2023-03-18T01:37:28.477Z,0.00
2023-03-18T01:38:28.441Z,0.00
2023-03-18T01:39:28.504Z,0.00
2023-03-18T01:40:28.599Z,0.00
2023-03-18T01:41:28.595Z,0.00
2023-03-18T01:42:28.647Z,0.00
2023-03-18T01:43:28.690Z,0.00
2023-03-18T01:44:28.743Z,0.00
2023-03-18T01:45:28.834Z,0.00
2023-03-18T01:46:28.751Z,0.00
2023-03-18T01:47:28.782Z,0.00
2023-03-18T01:48:28.822Z,0.00
2023-03-18T01:49:28.966Z,0.00
2023-03-18T01:50:29.113Z,0.00
2023-03-18T01:51:28.922Z,0.00
2023-03-18T01:52:28.964Z,0.00
2023-03-18T01:53:29.026Z,0.00
2023-03-18T01:54:29.072Z,0.00
2023-03-18T01:55:29.105Z,0.00
2023-03-18T01:56:29.146Z,0.00
2023-03-18T01:57:29.191Z,0.00
2023-03-18T01:58:29.233Z,0.00
2023-03-18T01:59:29.285Z,0.00
2023-03-18T02:00:29.592Z,0.00
2023-03-18T02:01:29.439Z,0.00
2023-03-18T02:02:29.409Z,0.00
2023-03-18T02:03:29.454Z,0.00
2023-03-18T02:04:29.501Z,0.00
2023-03-18T02:05:30.207Z,0.00
2023-03-18T02:06:29.522Z,0.00
2023-03-18T02:07:29.581Z,0.00
2023-03-18T02:08:29.629Z,0.00
2023-03-18T02:09:29.703Z,0.00
2023-03-18T02:10:29.894Z,0.00
2023-03-18T02:11:29.749Z,0.00
2023-03-18T02:12:29.790Z,0.00
2023-03-18T02:13:29.841Z,0.00
2023-03-18T02:14:29.900Z,0.00
2023-03-18T02:15:29.941Z,0.00
2023-03-18T02:16:30.024Z,0.00
2023-03-18T02:17:29.992Z,0.00
2023-03-18T02:18:30.077Z,0.00
2023-03-18T02:19:30.086Z,0.00
2023-03-18T02:20:30.371Z,0.00
2023-03-18T02:21:30.144Z,0.00
2023-03-18T02:22:30.167Z,0.00
2023-03-18T02:23:30.211Z,0.00
2023-03-18T02:24:30.270Z,0.00
2023-03-18T02:25:30.322Z,0.00
2023-03-18T02:26:30.362Z,0.00
2023-03-18T02:27:30.413Z,0.00
2023-03-18T02:28:30.462Z,0.00
2023-03-18T02:29:30.512Z,0.00
2023-03-18T02:30:30.903Z,0.00
2023-03-18T02:31:30.624Z,0.00
2023-03-18T02:32:30.799Z,0.00
2023-03-18T02:33:30.675Z,0.00
2023-03-18T02:34:30.735Z,0.00
2023-03-18T02:35:30.762Z,0.00
2023-03-18T02:36:30.766Z,0.00
2023-03-18T02:37:30.806Z,0.00
2023-03-18T02:38:30.859Z,0.00
2023-03-18T02:39:30.918Z,0.00
2023-03-18T02:40:31.250Z,0.00
2023-03-18T02:41:30.999Z,0.00
2023-03-18T02:42:31.053Z,0.00
2023-03-18T02:43:31.097Z,0.00
2023-03-18T02:44:31.143Z,0.00
2023-03-18T02:45:31.201Z,0.00
2023-03-18T02:46:31.356Z,0.00
2023-03-18T02:47:31.268Z,0.00
2023-03-18T02:48:31.309Z,0.00
2023-03-18T02:49:31.352Z,0.00
2023-03-18T02:50:31.611Z,0.00
2023-03-18T02:51:31.401Z,0.00
2023-03-18T02:52:31.392Z,0.00
2023-03-18T02:53:31.453Z,0.00
2023-03-18T02:54:31.493Z,0.00
2023-03-18T02:55:31.522Z,0.00
2023-03-18T02:56:31.580Z,0.00
2023-03-18T02:57:31.566Z,0.00
2023-03-18T02:58:31.627Z,0.00
2023-03-18T02:59:31.671Z,0.00
2023-03-18T03:00:31.920Z,0.00
2023-03-18T03:01:31.806Z,0.00
2023-03-18T03:02:31.913Z,0.00
2023-03-18T03:03:31.920Z,0.00
2023-03-18T03:04:31.886Z,0.00
2023-03-18T03:05:31.938Z,0.00
2023-03-18T03:06:31.990Z,0.00
2023-03-18T03:07:32.058Z,0.00
2023-03-18T03:08:32.086Z,0.00
2023-03-18T03:09:32.045Z,0.00
2023-03-18T03:10:32.354Z,0.00
2023-03-18T03:11:32.127Z,0.00
2023-03-18T03:12:32.167Z,0.00
2023-03-18T03:13:32.208Z,0.00
2023-03-18T03:14:32.237Z,0.00
2023-03-18T03:15:32.312Z,0.00
2023-03-18T03:16:32.292Z,0.00
2023-03-18T03:17:32.321Z,0.00
2023-03-18T03:18:32.383Z,0.00
2023-03-18T03:19:32.421Z,0.00
2023-03-18T03:20:32.717Z,0.00
2023-03-18T03:21:32.513Z,0.00
2023-03-18T03:22:32.573Z,0.00
2023-03-18T03:23:32.631Z,0.00
2023-03-18T03:24:32.685Z,0.00
2023-03-18T03:25:32.728Z,0.00
2023-03-18T03:26:32.776Z,0.00
2023-03-18T03:27:32.815Z,0.00
2023-03-18T03:28:32.896Z,0.00
2023-03-18T03:29:32.865Z,0.00
2023-03-18T03:30:33.211Z,0.00
2023-03-18T03:31:32.974Z,0.00
2023-03-18T03:32:32.989Z,0.00
2023-03-18T03:33:33.034Z,0.00
2023-03-18T03:34:33.075Z,0.00
2023-03-18T03:35:33.125Z,0.00
2023-03-18T03:36:33.186Z,0.00
2023-03-18T03:37:33.237Z,0.00
2023-03-18T03:38:33.310Z,0.00
2023-03-18T03:39:33.267Z,0.00
2023-03-18T03:40:33.658Z,0.00
2023-03-18T03:41:33.358Z,0.00
2023-03-18T03:42:33.399Z,0.00
2023-03-18T03:43:33.480Z,0.00
2023-03-18T03:44:33.489Z,0.00
2023-03-18T03:45:33.526Z,0.00
2023-03-18T03:46:33.621Z,0.00
2023-03-18T03:47:33.600Z,0.00
2023-03-18T03:48:33.672Z,0.00
2023-03-18T03:49:33.649Z,0.00
2023-03-18T03:50:33.886Z,0.00
2023-03-18T03:51:33.740Z,0.00
2023-03-18T03:52:33.785Z,0.00
2023-03-18T03:53:33.850Z,0.00
2023-03-18T03:54:33.901Z,0.00
2023-03-18T03:55:33.962Z,0.00
2023-03-18T03:56:34.012Z,0.00
2023-03-18T03:57:34.068Z,0.00
2023-03-18T03:58:34.113Z,0.00
2023-03-18T03:59:34.174Z,0.00
2023-03-18T04:00:34.248Z,0.00
2023-03-18T04:01:34.283Z,0.00
2023-03-18T04:02:34.361Z,0.00
2023-03-18T04:03:34.332Z,0.00
2023-03-18T04:04:34.402Z,0.00
2023-03-18T04:05:34.393Z,0.00
2023-03-18T04:06:34.357Z,0.00
2023-03-18T04:07:34.400Z,0.00
2023-03-18T04:08:34.456Z,0.00
2023-03-18T04:09:34.507Z,0.00
2023-03-18T04:10:34.681Z,0.00
2023-03-18T04:11:34.636Z,0.00
2023-03-18T04:12:34.603Z,0.00
2023-03-18T04:13:34.647Z,0.00
2023-03-18T04:14:34.690Z,0.00
2023-03-18T04:15:34.764Z,0.00
2023-03-18T04:16:34.807Z,0.00
2023-03-18T04:17:34.801Z,0.00
2023-03-18T04:18:34.844Z,0.00
2023-03-18T04:19:34.890Z,0.00
2023-03-18T04:20:34.957Z,0.00
2023-03-18T04:21:34.952Z,0.00
2023-03-18T04:22:34.926Z,0.00
2023-03-18T04:23:34.987Z,0.00
2023-03-18T04:24:35.017Z,0.00
2023-03-18T04:25:35.067Z,0.00
2023-03-18T04:26:35.138Z,0.00
2023-03-18T04:27:35.177Z,0.00
2023-03-18T04:28:35.220Z,0.00
2023-03-18T04:29:35.272Z,0.00
2023-03-18T04:30:35.339Z,0.00
2023-03-18T04:31:35.398Z,0.00
2023-03-18T04:32:35.397Z,0.00
2023-03-18T04:33:35.364Z,0.00
2023-03-18T04:34:35.416Z,0.00
2023-03-18T04:35:35.491Z,0.00
2023-03-18T04:36:35.479Z,0.00
2023-03-18T04:37:37.297Z,0.00
2023-03-18T04:38:35.549Z,0.00
2023-03-18T04:39:35.599Z,0.00
2023-03-18T04:40:35.669Z,0.00
2023-03-18T04:41:35.720Z,0.00
2023-03-18T04:42:35.777Z,0.00
2023-03-18T04:43:35.814Z,0.00
2023-03-18T04:44:35.866Z,0.00
2023-03-18T04:45:35.918Z,0.00
2023-03-18T04:46:35.956Z,0.00
2023-03-18T04:47:36.044Z,0.00
2023-03-18T04:48:35.934Z,0.00
2023-03-18T04:49:35.977Z,0.00
2023-03-18T04:50:36.027Z,0.00
2023-03-18T04:51:36.135Z,0.00
2023-03-18T04:52:36.154Z,0.00
2023-03-18T04:53:36.136Z,0.00
2023-03-18T04:54:36.096Z,0.00
2023-03-18T04:55:36.143Z,0.00
2023-03-18T04:56:36.102Z,0.00
2023-03-18T04:57:36.154Z,0.00
2023-03-18T04:58:36.206Z,0.00
2023-03-18T04:59:36.255Z,0.00
2023-03-18T05:00:36.325Z,0.00
2023-03-18T05:01:36.297Z,0.00
2023-03-18T05:02:36.357Z,0.00
2023-03-18T05:03:36.466Z,0.00
2023-03-18T05:04:36.452Z,0.00
2023-03-18T05:05:38.573Z,0.00
2023-03-18T05:06:36.526Z,0.00
2023-03-18T05:07:36.602Z,0.00
2023-03-18T05:08:36.661Z,0.00
2023-03-18T05:09:36.627Z,4.00
2023-03-18T05:10:36.699Z,4.00
2023-03-18T05:11:36.753Z,4.00
2023-03-18T05:12:36.822Z,4.00
2023-03-18T05:13:36.869Z,4.00
2023-03-18T05:14:36.929Z,8.00
2023-03-18T05:15:36.980Z,4.00
2023-03-18T05:16:37.131Z,8.00
2023-03-18T05:17:37.097Z,12.00
2023-03-18T05:18:37.080Z,12.00
2023-03-18T05:19:37.069Z,16.00
2023-03-18T05:20:37.072Z,16.00
2023-03-18T05:21:37.071Z,20.00
2023-03-18T05:22:37.106Z,20.00
2023-03-18T05:23:37.090Z,20.00
2023-03-18T05:24:37.161Z,24.00
2023-03-18T05:25:37.161Z,32.00
2023-03-18T05:26:37.152Z,40.00
2023-03-18T05:27:37.166Z,48.00
2023-03-18T05:28:37.151Z,52.00
2023-03-18T05:29:37.151Z,60.00
2023-03-18T05:30:37.156Z,56.00
2023-03-18T05:31:37.210Z,64.00
2023-03-18T05:32:37.187Z,60.00
2023-03-18T05:33:37.175Z,68.00
2023-03-18T05:34:37.213Z,64.00
2023-03-18T05:35:37.245Z,76.00
2023-03-18T05:36:37.262Z,76.00
2023-03-18T05:37:37.271Z,80.00
2023-03-18T05:38:37.307Z,100.00
2023-03-18T05:39:37.305Z,100.00
2023-03-18T05:40:37.337Z,104.00
2023-03-18T05:41:37.324Z,112.00
2023-03-18T05:42:49.472Z,124.00
2023-03-18T05:43:37.424Z,136.00
2023-03-18T05:44:37.422Z,168.00
2023-03-18T05:45:40.091Z,208.00
2023-03-18T05:46:37.481Z,216.00
2023-03-18T05:47:37.505Z,236.00
2023-03-18T05:48:37.572Z,236.00
2023-03-18T05:49:37.583Z,264.00
2023-03-18T05:50:37.588Z,276.00
2023-03-18T05:51:37.578Z,332.00
2023-03-18T05:52:37.605Z,396.00
2023-03-18T05:53:37.647Z,404.00
2023-03-18T05:54:37.684Z,416.00
2023-03-18T05:55:37.714Z,444.00
2023-03-18T05:56:37.748Z,440.00
2023-03-18T05:57:37.780Z,436.00
2023-03-18T05:58:37.832Z,380.00
2023-03-18T05:59:37.861Z,356.00
2023-03-18T06:00:37.870Z,336.00
2023-03-18T06:01:37.872Z,336.00
2023-03-18T06:02:38.058Z,360.00
2023-03-18T06:03:37.948Z,396.00
2023-03-18T06:04:37.916Z,424.00
2023-03-18T06:05:37.872Z,448.00
2023-03-18T06:06:37.903Z,484.00
2023-03-18T06:07:38.644Z,500.00
2023-03-18T06:08:37.976Z,520.00
2023-03-18T06:09:38.003Z,588.00
2023-03-18T06:10:38.006Z,696.00
2023-03-18T06:11:38.047Z,720.00
2023-03-18T06:12:38.076Z,760.00
2023-03-18T06:13:38.117Z,692.00
2023-03-18T06:14:38.105Z,672.00
2023-03-18T06:15:38.146Z,740.00
2023-03-18T06:16:38.220Z,728.00
2023-03-18T06:17:38.227Z,836.00
2023-03-18T06:18:38.247Z,912.00
2023-03-18T06:19:38.259Z,992.00
2023-03-18T06:20:38.260Z,1004.00
2023-03-18T06:21:38.291Z,992.00
2023-03-18T06:22:38.275Z,932.00
2023-03-18T06:23:38.341Z,984.00
2023-03-18T06:24:38.352Z,988.00
2023-03-18T06:25:38.396Z,1080.00
2023-03-18T06:26:38.393Z,1168.00
2023-03-18T06:27:38.402Z,1156.00
2023-03-18T06:28:38.434Z,1196.00
2023-03-18T06:29:38.440Z,1252.00
2023-03-18T06:30:38.457Z,1192.00
2023-03-18T06:31:38.491Z,1336.00
2023-03-18T06:32:38.571Z,1460.00
2023-03-18T06:33:38.547Z,1596.00
2023-03-18T06:34:38.601Z,1872.00
2023-03-18T06:35:38.639Z,1920.00
2023-03-18T06:36:38.659Z,2156.00
2023-03-18T06:37:38.705Z,2052.00
2023-03-18T06:38:38.755Z,2080.00
2023-03-18T06:39:41.141Z,2020.00
2023-03-18T06:40:38.836Z,2260.00
2023-03-18T06:41:38.875Z,2448.00
2023-03-18T06:42:38.947Z,3236.00
2023-03-18T06:43:39.008Z,3528.00
2023-03-18T06:44:39.066Z,3600.00
2023-03-18T06:45:39.066Z,3192.00
2023-03-18T06:46:39.191Z,2740.00
2023-03-18T06:47:39.126Z,2244.00
2023-03-18T06:48:39.168Z,2036.00
2023-03-18T06:49:39.197Z,2060.00
2023-03-18T06:50:39.248Z,1884.00
2023-03-18T06:51:39.375Z,1800.00
2023-03-18T06:52:39.332Z,1844.00
2023-03-18T06:53:39.425Z,2036.00
2023-03-18T06:54:39.408Z,2084.00
2023-03-18T06:55:39.442Z,2244.00
2023-03-18T06:56:39.463Z,2076.00
2023-03-18T06:57:39.504Z,1788.00
2023-03-18T06:58:39.542Z,1944.00
2023-03-18T06:59:39.585Z,2124.00
2023-03-18T07:00:39.677Z,2816.00
2023-03-18T07:01:39.827Z,3480.00
2023-03-18T07:02:39.964Z,3724.00
2023-03-18T07:03:39.711Z,3600.00
2023-03-18T07:04:39.773Z,3432.00
2023-03-18T07:05:39.733Z,3160.00
2023-03-18T07:06:39.801Z,2860.00
2023-03-18T07:07:39.821Z,2780.00
2023-03-18T07:08:39.862Z,2712.00
2023-03-18T07:09:39.927Z,2452.00
2023-03-18T07:10:39.933Z,2336.00
2023-03-18T07:11:39.983Z,2164.00
2023-03-18T07:12:40.046Z,2160.00
2023-03-18T07:13:40.094Z,2072.00
2023-03-18T07:14:40.148Z,2424.00
2023-03-18T07:15:40.255Z,2844.00
2023-03-18T07:16:40.204Z,3172.00
2023-03-18T07:17:40.219Z,3324.00
2023-03-18T07:18:40.204Z,3232.00
2023-03-18T07:19:40.205Z,3188.00
2023-03-18T07:20:40.241Z,2936.00
2023-03-18T07:21:40.266Z,2988.00
2023-03-18T07:22:40.303Z,3272.00
2023-03-18T07:23:40.310Z,3584.00
2023-03-18T07:24:40.317Z,3884.00
2023-03-18T07:25:40.307Z,4392.00
2023-03-18T07:26:40.287Z,5228.00
2023-03-18T07:27:40.278Z,5988.00
2023-03-18T07:28:40.291Z,6996.00
2023-03-18T07:29:40.278Z,7780.00
2023-03-18T07:30:40.308Z,7800.00
2023-03-18T07:31:40.345Z,7376.00
2023-03-18T07:32:40.343Z,6500.00
2023-03-18T07:33:40.348Z,5824.00
2023-03-18T07:34:40.340Z,5372.00
2023-03-18T07:35:40.419Z,5048.00
2023-03-18T07:36:40.469Z,5164.00
2023-03-18T07:37:40.453Z,5168.00
2023-03-18T07:38:40.471Z,5372.00
2023-03-18T07:39:40.473Z,5516.00
2023-03-18T07:40:40.491Z,5884.00
2023-03-18T07:41:40.481Z,6064.00
2023-03-18T07:42:40.503Z,6124.00
2023-03-18T07:43:40.494Z,6408.00
2023-03-18T07:44:40.531Z,6268.00
2023-03-18T07:45:40.567Z,6376.00
2023-03-18T07:46:40.584Z,5976.00
2023-03-18T07:47:40.601Z,5576.00
2023-03-18T07:48:40.635Z,5316.00
2023-03-18T07:49:40.674Z,5252.00
2023-03-18T07:50:40.687Z,5372.00
2023-03-18T07:51:40.751Z,5480.00
2023-03-18T07:52:40.727Z,5640.00
2023-03-18T07:53:40.736Z,5596.00
2023-03-18T07:54:40.745Z,5524.00
2023-03-18T07:55:40.805Z,5440.00
2023-03-18T07:56:40.894Z,5068.00
2023-03-18T07:57:40.915Z,5292.00
2023-03-18T07:58:40.926Z,5324.00
2023-03-18T07:59:40.917Z,5036.00
2023-03-18T08:00:40.966Z,5092.00
2023-03-18T08:01:41.007Z,4832.00
2023-03-18T08:02:41.006Z,4556.00
2023-03-18T08:03:41.059Z,4204.00
2023-03-18T08:04:41.108Z,3684.00
2023-03-18T08:05:41.069Z,3364.00
2023-03-18T08:06:41.088Z,3396.00
2023-03-18T08:07:41.126Z,3464.00
2023-03-18T08:08:41.177Z,3268.00
2023-03-18T08:09:41.189Z,3216.00
2023-03-18T08:10:41.210Z,3108.00
2023-03-18T08:11:41.239Z,3136.00
2023-03-18T08:12:52.027Z,3072.00
2023-03-18T08:13:41.301Z,3180.00
2023-03-18T08:14:41.339Z,3448.00
2023-03-18T08:15:41.322Z,3692.00
2023-03-18T08:16:41.456Z,3920.00
2023-03-18T08:17:41.417Z,4756.00
2023-03-18T08:18:41.472Z,5592.00
2023-03-18T08:19:41.497Z,6412.00
2023-03-18T08:20:41.556Z,6920.00
2023-03-18T08:21:41.601Z,7716.00
2023-03-18T08:22:41.645Z,7936.00
2023-03-18T08:23:41.688Z,8084.00
2023-03-18T08:24:43.452Z,8636.00
2023-03-18T08:25:41.829Z,9564.00
2023-03-18T08:26:41.815Z,10928.00
2023-03-18T08:27:41.838Z,11316.00
2023-03-18T08:28:41.913Z,10996.00
2023-03-18T08:29:41.944Z,11212.00
2023-03-18T08:30:41.987Z,12712.00
2023-03-18T08:33:07.995Z,13776.00
2023-03-18T08:36:59.935Z,13648.00
2023-03-18T08:37:59.936Z,14428.00
2023-03-18T08:46:09.952Z,16156.00
2023-03-18T08:47:09.995Z,13112.00
2023-03-18T08:49:36.033Z,8432.00
2023-03-18T08:50:36.091Z,7768.00
2023-03-18T08:53:02.060Z,6704.00
2023-03-18T08:54:02.063Z,6796.00
2023-03-18T08:55:02.062Z,6908.00
2023-03-18T08:56:03.004Z,7324.00
2023-03-18T08:57:02.157Z,7900.00
2023-03-18T08:58:02.187Z,8136.00
2023-03-18T08:59:02.204Z,7908.00
2023-03-18T09:00:02.251Z,7564.00
2023-03-18T09:01:02.305Z,7556.00
2023-03-18T09:02:02.322Z,7812.00
2023-03-18T09:03:02.415Z,7888.00
2023-03-18T09:04:02.447Z,7792.00
2023-03-18T09:05:02.477Z,7644.00
2023-03-18T09:06:02.478Z,7844.00
2023-03-18T09:07:02.491Z,7860.00
2023-03-18T09:08:02.548Z,8196.00
2023-03-18T09:09:02.558Z,8564.00
2023-03-18T09:10:02.568Z,8628.00
2023-03-18T09:11:02.557Z,9584.00
2023-03-18T09:12:02.544Z,9876.00
2023-03-18T09:13:02.538Z,9708.00
2023-03-18T09:14:02.543Z,10456.00
2023-03-18T09:15:02.562Z,10992.00
2023-03-18T09:16:02.556Z,11984.00
2023-03-18T09:17:02.585Z,13692.00
2023-03-18T09:18:11.658Z,13504.00
2023-03-18T09:19:02.592Z,12920.00
2023-03-18T09:20:02.635Z,13388.00
2023-03-18T09:21:02.640Z,13196.00
2023-03-18T09:22:02.709Z,12232.00
2023-03-18T09:23:02.699Z,11720.00
2023-03-18T09:24:02.717Z,11648.00
2023-03-18T09:25:02.773Z,11936.00
2023-03-18T09:26:02.842Z,11740.00
2023-03-18T09:27:02.859Z,11244.00
2023-03-18T09:28:02.889Z,11464.00
2023-03-18T09:29:02.892Z,12504.00
2023-03-18T09:30:02.913Z,12156.00
2023-03-18T09:31:02.963Z,13344.00
2023-03-18T09:32:02.914Z,14512.00
2023-03-18T09:33:03.026Z,13172.00
2023-03-18T09:34:02.998Z,12392.00
2023-03-18T09:35:02.996Z,13496.00
2023-03-18T09:36:03.057Z,13208.00
2023-03-18T09:37:03.066Z,13372.00
2023-03-18T09:38:03.112Z,12524.00
2023-03-18T09:39:03.134Z,11796.00
2023-03-18T09:40:03.169Z,11260.00
2023-03-18T09:41:03.199Z,10836.00
2023-03-18T09:42:03.216Z,10612.00
2023-03-18T09:43:03.291Z,10056.00
2023-03-18T09:44:03.465Z,9716.00
2023-03-18T09:45:03.321Z,9496.00
2023-03-18T09:46:03.438Z,9172.00
2023-03-18T09:47:03.471Z,8892.00
2023-03-18T09:48:03.336Z,8556.00
2023-03-18T09:49:03.378Z,8100.00
2023-03-18T09:50:03.368Z,8056.00
2023-03-18T09:51:03.443Z,8504.00
2023-03-18T09:52:03.430Z,9360.00
2023-03-18T09:53:03.474Z,9756.00
2023-03-18T09:54:03.500Z,10112.00
2023-03-18T09:55:03.510Z,9920.00
2023-03-18T09:56:03.531Z,10360.00
2023-03-18T09:57:03.570Z,10836.00
2023-03-18T09:58:03.567Z,11404.00
2023-03-18T09:59:03.540Z,12348.00
2023-03-18T10:00:03.587Z,12460.00
2023-03-18T10:01:03.654Z,12440.00
2023-03-18T10:02:03.647Z,12300.00
2023-03-18T10:03:06.277Z,12280.00
2023-03-18T10:04:03.865Z,12792.00
2023-03-18T10:05:03.801Z,13364.00
2023-03-18T10:06:03.797Z,14348.00
2023-03-18T10:07:03.824Z,15468.00
2023-03-18T10:08:03.853Z,15560.00
2023-03-18T10:09:03.838Z,15628.00
2023-03-18T10:10:03.845Z,15520.00
2023-03-18T10:11:03.890Z,16640.00
2023-03-18T10:12:03.938Z,16352.00
2023-03-18T10:13:04.034Z,18112.00
2023-03-18T10:14:04.023Z,21088.00
2023-03-18T10:15:04.042Z,19424.00
2023-03-18T10:16:04.065Z,23520.00
2023-03-18T10:17:04.029Z,21824.00
2023-03-18T10:18:04.165Z,21440.00
2023-03-18T10:19:05.017Z,21120.00
2023-03-18T10:20:04.181Z,23584.00
2023-03-18T10:21:04.263Z,23584.00
2023-03-18T10:22:04.293Z,20320.00
2023-03-18T10:23:04.343Z,18432.00
2023-03-18T10:24:04.386Z,19040.00
2023-03-18T10:25:04.513Z,28416.00
2023-03-18T10:26:04.405Z,21152.00
2023-03-18T10:27:04.477Z,21152.00
2023-03-18T10:28:04.530Z,21280.00
2023-03-18T10:29:04.633Z,22080.00
2023-03-18T10:30:04.646Z,21600.00
2023-03-18T10:31:04.719Z,25152.00
2023-03-18T10:32:04.762Z,28192.00
2023-03-18T10:33:04.767Z,36992.00
2023-03-18T10:34:04.758Z,27008.00
2023-03-18T10:35:04.778Z,23456.00
2023-03-18T10:36:04.846Z,24928.00
2023-03-18T10:37:04.869Z,29376.00
2023-03-18T10:38:04.915Z,40608.00
2023-03-18T10:39:04.904Z,23392.00
2023-03-18T10:40:04.894Z,39712.00
2023-03-18T10:41:04.905Z,24448.00
2023-03-18T10:42:04.923Z,24160.00
2023-03-18T10:43:05.012Z,37536.00
2023-03-18T10:44:04.975Z,19904.00
2023-03-18T10:45:05.060Z,17248.00
2023-03-18T10:46:05.153Z,14940.00
2023-03-18T10:47:05.285Z,12004.00
2023-03-18T10:48:06.157Z,9876.00
2023-03-18T10:49:05.286Z,8440.00
2023-03-18T10:50:05.293Z,7680.00
2023-03-18T10:51:05.321Z,8312.00
2023-03-18T10:52:05.338Z,9080.00
2023-03-18T10:53:05.319Z,13060.00
2023-03-18T10:54:05.358Z,12348.00
2023-03-18T10:55:05.379Z,12148.00
2023-03-18T10:56:05.403Z,12412.00
2023-03-18T10:57:05.417Z,12284.00
2023-03-18T10:58:05.407Z,13140.00
2023-03-18T10:59:05.422Z,13784.00
2023-03-18T11:00:05.474Z,14396.00
2023-03-18T11:01:05.475Z,14476.00
2023-03-18T11:02:05.569Z,14908.00
2023-03-18T11:03:05.661Z,14316.00
2023-03-18T11:04:05.632Z,15228.00
2023-03-18T11:05:05.681Z,17024.00
2023-03-18T11:06:05.683Z,19424.00
2023-03-18T11:07:05.732Z,24896.00
2023-03-18T11:08:05.794Z,26432.00
2023-03-18T11:09:05.785Z,25376.00
2023-03-18T11:10:05.858Z,25792.00
2023-03-18T11:11:05.896Z,19328.00
2023-03-18T11:12:05.964Z,21408.00
2023-03-18T11:13:05.997Z,19872.00
2023-03-18T11:14:06.085Z,19392.00
2023-03-18T11:15:06.078Z,18720.00
2023-03-18T11:16:06.139Z,18240.00
2023-03-18T11:17:06.234Z,18016.00
2023-03-18T11:18:06.227Z,17792.00
2023-03-18T11:19:06.259Z,18592.00
2023-03-18T11:20:06.270Z,16800.00
2023-03-18T11:21:06.281Z,16004.00
2023-03-18T11:22:06.312Z,15528.00
2023-03-18T11:23:06.362Z,15396.00
2023-03-18T11:24:06.364Z,12952.00
2023-03-18T11:25:06.363Z,15204.00
2023-03-18T11:26:06.454Z,16552.00
2023-03-18T11:27:06.484Z,18048.00
2023-03-18T11:28:06.489Z,19040.00
2023-03-18T11:29:06.516Z,18400.00
2023-03-18T11:30:06.493Z,16456.00
2023-03-18T11:31:06.662Z,16480.00
2023-03-18T11:32:08.836Z,16668.00
2023-03-18T11:33:06.567Z,16864.00
2023-03-18T11:34:06.586Z,16576.00
2023-03-18T11:35:06.567Z,16416.00
2023-03-18T11:36:06.630Z,15944.00
2023-03-18T11:37:06.640Z,16248.00
2023-03-18T11:38:06.706Z,16428.00
2023-03-18T11:39:06.791Z,13532.00
2023-03-18T11:40:06.777Z,16716.00
2023-03-18T11:41:06.830Z,16672.00
2023-03-18T11:42:06.827Z,16624.00
2023-03-18T11:43:06.907Z,17120.00
2023-03-18T11:44:06.934Z,16800.00
2023-03-18T11:45:06.977Z,18272.00
2023-03-18T11:46:07.040Z,17536.00
2023-03-18T11:47:07.045Z,16608.00
2023-03-18T11:48:07.011Z,16640.00
2023-03-18T11:49:07.008Z,13624.00
2023-03-18T11:50:07.008Z,13820.00
2023-03-18T11:51:07.106Z,18176.00
2023-03-18T11:52:07.274Z,16764.00
2023-03-18T11:53:07.202Z,15248.00
2023-03-18T11:54:09.285Z,18592.00
2023-03-18T11:55:07.220Z,17152.00
2023-03-18T11:56:07.267Z,13868.00
2023-03-18T11:57:07.293Z,17376.00
2023-03-18T11:58:07.318Z,18816.00
2023-03-18T11:59:07.365Z,19040.00
2023-03-18T12:00:07.396Z,18752.00
2023-03-18T12:01:07.396Z,12996.00
2023-03-18T12:02:07.448Z,13432.00
2023-03-18T12:03:07.461Z,17312.00
2023-03-18T12:04:07.448Z,17536.00
2023-03-18T12:05:07.529Z,16752.00
2023-03-18T12:06:07.508Z,16016.00
2023-03-18T12:07:07.499Z,15916.00
2023-03-18T12:08:07.568Z,13256.00
2023-03-18T12:09:07.580Z,11844.00
2023-03-18T12:10:07.614Z,11792.00
2023-03-18T12:11:07.673Z,16072.00
2023-03-18T12:12:07.675Z,11452.00
2023-03-18T12:13:07.682Z,11272.00
2023-03-18T12:14:07.702Z,11152.00
2023-03-18T12:15:07.709Z,11216.00
2023-03-18T12:16:07.753Z,11160.00
2023-03-18T12:17:07.774Z,11344.00
2023-03-18T12:18:07.835Z,11168.00
2023-03-18T12:19:07.884Z,14684.00
2023-03-18T12:20:07.894Z,11740.00
2023-03-18T12:21:07.928Z,14528.00
2023-03-18T12:22:07.916Z,15232.00
2023-03-18T12:23:07.947Z,15444.00
2023-03-18T12:24:08.037Z,15564.00
2023-03-18T12:25:08.025Z,16160.00
2023-03-18T12:26:08.066Z,16448.00
2023-03-18T12:27:08.148Z,17408.00
2023-03-18T12:28:08.180Z,16928.00
2023-03-18T12:29:08.219Z,16352.00
2023-03-18T12:30:08.229Z,18208.00
2023-03-18T12:31:08.240Z,16992.00
2023-03-18T12:32:08.262Z,13596.00
2023-03-18T12:33:08.346Z,15984.00
2023-03-18T12:34:08.323Z,12272.00
2023-03-18T12:35:08.365Z,11724.00
2023-03-18T12:36:08.423Z,11660.00
2023-03-18T12:37:08.444Z,13608.00
2023-03-18T12:38:08.453Z,11936.00
2023-03-18T12:39:08.524Z,11696.00
2023-03-18T12:40:08.557Z,11484.00
2023-03-18T12:41:08.596Z,11696.00
2023-03-18T12:42:08.656Z,11488.00
2023-03-18T12:43:08.676Z,13312.00
2023-03-18T12:44:08.783Z,13132.00
2023-03-18T12:45:08.769Z,13300.00
2023-03-18T12:46:08.840Z,13896.00
2023-03-18T12:47:08.817Z,13412.00
2023-03-18T12:48:08.820Z,13296.00
2023-03-18T12:49:08.905Z,13528.00
2023-03-18T12:51:34.851Z,13476.00
2023-03-18T12:52:34.916Z,12032.00
2023-03-18T12:53:34.911Z,12312.00
2023-03-18T12:54:34.990Z,14676.00
2023-03-18T12:55:35.068Z,15256.00
2023-03-18T12:56:35.022Z,15752.00
2023-03-18T12:57:35.043Z,16076.00
2023-03-18T12:58:35.082Z,16120.00
2023-03-18T12:59:35.084Z,16376.00
2023-03-18T13:00:35.489Z,16736.00
2023-03-18T13:01:35.188Z,16252.00
2023-03-18T13:02:35.254Z,15572.00
2023-03-18T13:03:35.286Z,15084.00
2023-03-18T13:04:35.309Z,14816.00